createdAt,value
2019-02-21T00:02:16.041Z,20.92
2019-02-21T00:05:18.823Z,17.70
2019-02-21T00:08:21.874Z,27.62
2019-02-21T00:11:27.982Z,37.75
2019-02-21T00:14:30.760Z,24.60
2019-02-21T00:17:33.551Z,27.30
2019-02-21T00:20:36.585Z,25.35
2019-02-21T00:23:39.131Z,31.52
2019-02-21T00:26:44.146Z,22.65
2019-02-21T00:29:45.196Z,29.85
2019-02-21T00:32:44.396Z,20.88
2019-02-21T00:35:46.923Z,35.20
2019-02-21T00:38:49.706Z,28.27
2019-02-21T00:41:52.282Z,27.30
2019-02-21T00:44:55.020Z,23.20
2019-02-21T00:47:58.063Z,25.30
2019-02-21T00:51:00.603Z,38.42
2019-02-21T00:54:03.902Z,33.60
2019-02-21T00:57:07.947Z,33.10
2019-02-21T01:00:14.058Z,34.70
2019-02-21T01:03:13.495Z,34.92
2019-02-21T01:06:16.562Z,26.60
2019-02-21T01:09:19.848Z,21.33
2019-02-21T01:12:22.895Z,29.05
2019-02-21T01:15:25.677Z,37.17
2019-02-21T01:18:28.462Z,33.25
2019-02-21T01:21:30.985Z,36.10
2019-02-21T01:24:34.032Z,38.67
2019-02-21T01:27:36.815Z,33.95
2019-02-21T01:30:40.623Z,29.35
2019-02-21T01:33:43.404Z,23.75
2019-02-21T01:36:46.704Z,30.08
2019-02-21T01:39:50.766Z,25.30
2019-02-21T01:42:53.546Z,24.90
2019-02-21T01:45:56.088Z,24.95
2019-02-21T01:48:59.556Z,28.15
2019-02-21T01:52:01.650Z,35.58
2019-02-21T01:55:04.266Z,25.30
2019-02-21T01:58:07.210Z,24.95
2019-02-21T02:01:10.000Z,27.87
2019-02-21T02:04:12.781Z,27.87
2019-02-21T02:07:15.821Z,23.98
2019-02-21T02:10:19.386Z,33.80
2019-02-21T02:13:24.802Z,23.98
2019-02-21T02:16:25.705Z,26.75
2019-02-21T02:19:28.490Z,37.67
2019-02-21T02:22:33.070Z,19.95
2019-02-21T02:25:35.854Z,27.50
2019-02-21T02:28:46.060Z,22.32
2019-02-21T02:31:49.100Z,32.45
2019-02-21T02:34:52.145Z,37.42
2019-02-21T02:37:55.439Z,33.02
2019-02-21T02:40:59.243Z,34.65
2019-02-21T02:43:58.107Z,37.75
2019-02-21T02:47:01.995Z,34.20
2019-02-21T02:50:05.037Z,35.43
2019-02-21T02:53:07.817Z,18.35
2019-02-21T02:56:10.858Z,29.72
2019-02-21T02:59:13.130Z,37.88
2019-02-21T03:02:24.115Z,32.03
2019-02-21T03:05:27.145Z,27.13
2019-02-21T03:08:29.930Z,23.27
2019-02-21T03:11:32.462Z,24.30
2019-02-21T03:14:46.762Z,40.43
2019-02-21T03:17:49.545Z,31.40
2019-02-21T03:20:52.149Z,32.73
2019-02-21T03:23:56.660Z,35.20
2019-02-21T03:26:59.433Z,36.10
2019-02-21T03:30:02.230Z,35.75
2019-02-21T03:33:04.920Z,35.03
2019-02-21T03:36:08.610Z,32.90
2019-02-21T03:39:11.351Z,37.58
2019-02-21T03:42:13.876Z,20.77
2019-02-21T03:45:16.652Z,41.10
2019-02-21T03:48:19.707Z,38.08
2019-02-21T03:51:22.731Z,51.83
2019-02-21T03:54:25.515Z,26.23
2019-02-21T03:57:28.048Z,35.00
2019-02-21T04:00:30.832Z,40.58
2019-02-21T04:03:33.618Z,32.38
2019-02-21T04:06:36.140Z,17.85
2019-02-21T04:09:39.688Z,18.17
2019-02-21T04:12:42.477Z,37.67
2019-02-21T04:15:45.008Z,19.17
2019-02-21T04:18:43.925Z,19.87
2019-02-21T04:21:46.737Z,20.02
2019-02-21T04:24:49.255Z,21.23
2019-02-21T04:27:46.732Z,44.95
2019-02-21T04:30:50.217Z,50.28
2019-02-21T04:33:52.494Z,41.13
2019-02-21T04:36:55.025Z,40.03
2019-02-21T04:39:57.546Z,39.33
2019-02-21T04:43:01.356Z,46.68
2019-02-21T04:46:05.166Z,23.47
2019-02-21T04:49:07.436Z,50.20
2019-02-21T04:52:10.221Z,45.35
2019-02-21T04:55:12.765Z,31.07
2019-02-21T04:58:15.285Z,21.93
2019-02-21T05:01:18.333Z,41.85
2019-02-21T05:04:20.887Z,30.50
2019-02-21T05:07:26.699Z,22.35
2019-02-21T05:10:29.483Z,29.00
2019-02-21T05:13:33.787Z,17.00
2019-02-21T05:16:35.051Z,17.67
2019-02-21T05:19:37.834Z,45.73
2019-02-21T05:22:40.627Z,17.62
2019-02-21T05:25:44.429Z,41.83
2019-02-21T05:28:47.465Z,52.43
2019-02-21T05:31:49.995Z,43.70
2019-02-21T05:34:52.523Z,50.78
2019-02-21T05:37:56.849Z,42.43
2019-02-21T05:40:59.631Z,52.43
2019-02-21T05:44:02.934Z,41.65
2019-02-21T05:47:01.872Z,20.62
2019-02-21T05:50:05.677Z,21.85
2019-02-21T05:53:08.472Z,17.20
2019-02-21T05:56:11.244Z,46.25
2019-02-21T05:59:14.281Z,48.15
2019-02-21T06:02:16.825Z,44.63
2019-02-21T06:05:19.606Z,21.25
2019-02-21T06:08:18.821Z,20.08
2019-02-21T06:11:21.323Z,51.45
2019-02-21T06:14:23.857Z,37.83
2019-02-21T06:17:26.124Z,41.37
2019-02-21T06:20:28.912Z,19.25
2019-02-21T06:23:31.694Z,53.75
2019-02-21T06:26:34.472Z,32.40
2019-02-21T06:29:37.260Z,44.73
2019-02-21T06:32:40.840Z,48.40
2019-02-21T06:35:43.361Z,42.98
2019-02-21T06:38:46.123Z,48.75
2019-02-21T06:41:59.018Z,47.88
2019-02-21T06:44:51.692Z,46.60
2019-02-21T06:47:54.475Z,51.55
2019-02-21T06:50:57.261Z,28.20
2019-02-21T06:54:00.045Z,55.38
2019-02-21T06:57:04.623Z,42.27
2019-02-21T07:00:07.404Z,32.15
2019-02-21T07:03:15.751Z,25.35
2019-02-21T07:06:13.737Z,49.27
2019-02-21T07:09:16.522Z,45.88
2019-02-21T07:12:20.842Z,21.07
2019-02-21T07:15:23.884Z,29.60
2019-02-21T07:18:28.966Z,17.95
2019-02-21T07:21:30.216Z,21.57
2019-02-21T07:24:34.025Z,52.30
2019-02-21T07:27:36.554Z,22.93
2019-02-21T07:30:39.854Z,41.40
2019-02-21T07:33:42.378Z,43.83
2019-02-21T07:36:45.164Z,53.28
2019-02-21T07:39:50.848Z,22.77
2019-02-21T07:42:58.640Z,22.67
2019-02-21T07:45:55.217Z,19.62
2019-02-21T07:48:57.838Z,35.25
2019-02-21T07:52:00.623Z,23.10
2019-02-21T07:55:03.402Z,22.22
2019-02-21T07:58:06.442Z,18.73
2019-02-21T08:01:09.226Z,20.60
2019-02-21T08:04:12.266Z,20.43
2019-02-21T08:07:16.333Z,24.63
2019-02-21T08:10:22.526Z,37.08
2019-02-21T08:13:22.925Z,35.25
2019-02-21T08:16:25.963Z,56.55
2019-02-21T08:19:28.748Z,31.45
2019-02-21T08:22:31.529Z,28.38
2019-02-21T08:25:38.293Z,26.20
2019-02-21T08:28:36.845Z,27.52
2019-02-21T08:31:39.373Z,47.17
2019-02-21T08:34:41.899Z,45.75
2019-02-21T08:37:44.941Z,22.77
2019-02-21T08:40:47.729Z,23.77
2019-02-21T08:43:53.183Z,23.62
2019-02-21T08:46:56.618Z,29.70
2019-02-21T08:49:59.940Z,41.77
2019-02-21T08:53:02.956Z,49.18
2019-02-21T08:56:06.005Z,47.78
2019-02-21T08:59:08.523Z,30.60
2019-02-21T09:02:12.334Z,21.15
2019-02-21T09:05:09.473Z,20.30
2019-02-21T09:08:10.804Z,49.35
2019-02-21T09:11:13.516Z,24.45
2019-02-21T09:14:16.809Z,27.10
2019-02-21T09:17:20.874Z,29.40
2019-02-21T09:20:25.961Z,39.00
2019-02-21T09:23:28.749Z,29.77
2019-02-21T09:26:31.785Z,42.93
2019-02-21T09:29:34.314Z,25.75
2019-02-21T09:32:36.842Z,22.30
2019-02-21T09:35:39.626Z,37.93
2019-02-21T09:38:42.154Z,31.55
2019-02-21T09:41:40.879Z,21.55
2019-02-21T09:44:43.626Z,27.80
2019-02-21T09:47:46.156Z,40.33
2019-02-21T09:50:48.681Z,26.68
2019-02-21T09:53:51.465Z,32.08
2019-02-21T09:56:54.251Z,34.55
2019-02-21T09:59:56.782Z,28.90
2019-02-21T10:02:59.306Z,31.73
2019-02-21T10:06:01.580Z,28.20
2019-02-21T10:09:04.362Z,34.13
2019-02-21T10:12:07.149Z,29.07
2019-02-21T10:15:06.416Z,28.90
2019-02-21T10:18:09.901Z,32.80
2019-02-21T10:21:12.687Z,31.40
2019-02-21T10:24:15.724Z,39.13
2019-02-21T10:27:18.506Z,31.12
2019-02-21T10:30:21.290Z,27.13
2019-02-21T10:33:25.381Z,19.90
2019-02-21T10:36:26.604Z,18.10
2019-02-21T10:39:30.408Z,13.60
2019-02-21T10:42:33.196Z,21.12
2019-02-21T10:45:47.145Z,31.33
2019-02-21T10:48:38.508Z,28.12
2019-02-21T10:51:41.032Z,22.95
2019-02-21T10:54:44.662Z,22.35
2019-02-21T10:57:45.560Z,26.62
2019-02-21T11:00:47.337Z,17.00
2019-02-21T11:03:51.150Z,14.13
2019-02-21T11:06:53.934Z,17.65
2019-02-21T11:09:56.715Z,17.25
2019-02-21T11:12:59.753Z,27.40
2019-02-21T11:16:02.535Z,17.52
2019-02-21T11:19:05.323Z,20.97
2019-02-21T11:22:07.849Z,18.65
2019-02-21T11:25:10.632Z,15.35
2019-02-21T11:28:13.162Z,13.45
2019-02-21T11:31:16.211Z,24.12
2019-02-21T11:34:19.242Z,17.95
2019-02-21T11:37:22.025Z,23.20
2019-02-21T11:40:25.078Z,21.25
2019-02-21T11:43:28.874Z,14.90
2019-02-21T11:46:31.928Z,23.25
2019-02-21T11:49:42.383Z,21.27
2019-02-21T11:52:45.417Z,19.40
2019-02-21T11:55:59.211Z,33.30
2019-02-21T11:59:02.251Z,10.90
2019-02-21T12:02:05.035Z,20.05
2019-02-21T12:05:17.091Z,25.68
2019-02-21T12:08:11.370Z,25.85
2019-02-21T12:11:13.908Z,21.80
2019-02-21T12:14:16.682Z,21.90
2019-02-21T12:17:20.494Z,16.90
2019-02-21T12:20:23.527Z,12.90
2019-02-21T12:23:26.058Z,14.33
2019-02-21T12:26:28.844Z,9.20
2019-02-21T12:29:31.879Z,17.85
2019-02-21T12:32:34.411Z,16.85
2019-02-21T12:35:37.704Z,17.87
2019-02-21T12:38:42.281Z,11.43
2019-02-21T12:41:45.339Z,17.10
2019-02-21T12:44:48.005Z,18.32
2019-02-21T12:48:46.188Z,11.83
2019-02-21T12:51:48.713Z,16.97
2019-02-21T12:54:51.957Z,20.43
2019-02-21T12:57:54.280Z,20.85
2019-02-21T13:00:57.067Z,13.43
2019-02-21T13:04:00.619Z,9.30
2019-02-21T13:07:03.655Z,18.82
2019-02-21T13:10:06.440Z,24.23
2019-02-21T13:13:09.229Z,16.45
2019-02-21T13:16:12.269Z,14.35
2019-02-21T13:19:15.305Z,23.42
2019-02-21T13:22:14.375Z,13.50
2019-02-21T13:25:16.787Z,8.68
2019-02-21T13:31:36.431Z,12.10
2019-02-21T13:34:40.749Z,11.53
2019-02-21T13:37:44.553Z,25.55
2019-02-21T13:40:49.526Z,15.65
2019-02-21T13:43:50.899Z,15.10
2019-02-21T13:46:53.160Z,12.60
2019-02-21T13:49:55.950Z,9.03
2019-02-21T13:52:58.474Z,15.48
2019-02-21T13:56:02.537Z,18.67
2019-02-21T13:59:05.079Z,19.77
2019-02-21T14:02:08.872Z,14.60
2019-02-21T14:05:12.681Z,17.20
2019-02-21T14:08:14.957Z,16.15
2019-02-21T14:11:18.505Z,12.28
2019-02-21T14:14:22.319Z,15.60
2019-02-21T14:17:26.121Z,14.40
2019-02-21T14:20:28.905Z,15.72
2019-02-21T14:23:31.723Z,14.90
2019-02-21T14:26:35.497Z,10.55
2019-02-21T14:29:39.193Z,8.10
2019-02-21T14:32:38.249Z,12.88
2019-02-21T14:35:41.800Z,12.85
2019-02-21T14:38:45.353Z,8.35
2019-02-21T14:41:48.140Z,16.45
2019-02-21T14:44:50.681Z,10.13
2019-02-21T14:47:53.199Z,18.07
2019-02-21T14:50:55.720Z,9.03
2019-02-21T14:53:58.761Z,12.78
2019-02-21T14:57:01.557Z,23.30
2019-02-21T15:00:00.566Z,13.88
2019-02-21T15:03:03.538Z,9.95
2019-02-21T15:06:06.315Z,8.33
2019-02-21T15:09:09.863Z,7.42
2019-02-21T15:12:12.915Z,14.87
2019-02-21T15:15:16.458Z,9.53
2019-02-21T15:18:18.985Z,9.33
2019-02-21T15:21:21.768Z,9.78
2019-02-21T15:24:24.299Z,12.45
2019-02-21T15:27:26.824Z,9.25
2019-02-21T15:30:29.613Z,12.90
2019-02-21T15:33:32.136Z,7.90
2019-02-21T15:36:38.145Z,12.35
2019-02-21T15:39:37.975Z,8.13
2019-02-21T15:42:40.741Z,8.60
2019-02-21T15:45:44.043Z,11.35
2019-02-21T15:48:46.845Z,7.03
2019-02-21T15:51:50.630Z,9.40
2019-02-21T15:54:53.415Z,8.28
2019-02-21T15:58:03.496Z,7.62
2019-02-21T16:00:54.890Z,8.45
2019-02-21T16:04:08.690Z,10.68
2019-02-21T16:07:11.210Z,10.85
2019-02-21T16:10:13.998Z,21.75
2019-02-21T16:13:17.169Z,11.60
2019-02-21T16:16:20.075Z,12.25
2019-02-21T16:19:30.540Z,24.77
2019-02-21T16:22:33.322Z,28.23
2019-02-21T16:25:36.106Z,28.75
2019-02-21T16:28:38.894Z,29.65
2019-02-21T16:31:41.674Z,30.40
2019-02-21T16:34:44.971Z,28.87
2019-02-21T16:37:50.062Z,29.30
2019-02-21T16:40:53.358Z,18.23
2019-02-21T16:43:56.139Z,17.62
2019-02-21T16:46:59.177Z,15.95
2019-02-21T16:50:02.218Z,15.75
2019-02-21T16:53:06.032Z,13.35
2019-02-21T16:56:08.554Z,9.48
2019-02-21T16:59:10.844Z,10.15
2019-02-21T17:02:13.353Z,10.80
2019-02-21T17:05:15.886Z,12.45
2019-02-21T17:08:18.409Z,13.40
2019-02-21T17:11:20.681Z,10.85
2019-02-21T17:14:19.688Z,10.55
2019-02-21T17:17:22.408Z,10.30
2019-02-21T17:20:25.205Z,11.38
2019-02-21T17:23:27.975Z,8.20
2019-02-21T17:26:26.840Z,8.58
2019-02-21T17:29:29.704Z,11.53
2019-02-21T17:32:32.247Z,13.43
2019-02-21T17:35:42.192Z,11.88
2019-02-21T17:38:44.970Z,9.73
2019-02-21T17:41:43.656Z,15.78
2019-02-21T17:44:49.257Z,12.43
2019-02-21T17:47:52.039Z,19.20
2019-02-21T17:50:54.572Z,14.13
2019-02-21T17:53:57.613Z,12.10
2019-02-21T17:57:00.649Z,14.53
2019-02-21T18:00:03.177Z,14.47
2019-02-21T18:03:00.077Z,23.85
2019-02-21T18:06:03.114Z,13.00
2019-02-21T18:09:06.422Z,15.50
2019-02-21T18:12:08.936Z,14.90
2019-02-21T18:15:11.978Z,10.18
2019-02-21T18:18:14.761Z,11.57
2019-02-21T18:21:17.545Z,17.80
2019-02-21T18:24:20.331Z,15.18
2019-02-21T18:27:22.856Z,17.55
2019-02-21T18:30:26.408Z,19.23
2019-02-21T18:33:30.480Z,17.23
2019-02-21T18:36:33.000Z,18.57
2019-02-21T18:39:35.784Z,14.45
2019-02-21T18:42:38.599Z,13.25
2019-02-21T18:45:41.372Z,20.10
2019-02-21T18:48:44.650Z,19.92
2019-02-21T18:51:47.178Z,18.73
2019-02-21T18:54:49.966Z,17.57
2019-02-21T18:57:53.006Z,17.60
2019-02-21T19:00:51.949Z,15.88
2019-02-21T19:03:55.240Z,21.07
2019-02-21T19:06:58.026Z,22.85
2019-02-21T19:09:56.968Z,20.68
2019-02-21T19:13:00.523Z,18.00
2019-02-21T19:16:03.325Z,23.07
2019-02-21T19:19:06.350Z,21.55
2019-02-21T19:22:08.875Z,14.93
2019-02-21T19:25:11.404Z,12.45
2019-02-21T19:28:14.444Z,37.25
2019-02-21T19:31:19.275Z,25.92
2019-02-21T19:34:22.840Z,18.73
2019-02-21T19:37:25.361Z,28.70
2019-02-21T19:40:28.399Z,34.58
2019-02-21T19:43:31.438Z,27.95
2019-02-21T19:46:33.970Z,40.00
2019-02-21T19:49:37.003Z,31.85
2019-02-21T19:52:40.043Z,31.57
2019-02-21T19:55:42.830Z,40.25
2019-02-21T19:58:45.352Z,20.25
2019-02-21T20:01:48.150Z,47.25
2019-02-21T20:04:50.923Z,46.90
2019-02-21T20:07:53.448Z,19.12
2019-02-21T20:10:56.488Z,50.08
2019-02-21T20:13:59.273Z,53.00
2019-02-21T20:17:02.057Z,61.00
2019-02-21T20:20:05.100Z,64.05
2019-02-21T20:23:08.138Z,62.75
2019-02-21T20:26:18.435Z,55.95
2019-02-21T20:29:13.968Z,56.28
2019-02-21T20:32:16.749Z,57.30
2019-02-21T20:35:19.785Z,49.63
2019-02-21T20:38:31.843Z,53.83
2019-02-21T20:41:26.651Z,55.92
2019-02-21T20:44:29.418Z,56.05
2019-02-21T20:47:31.965Z,49.80
2019-02-21T20:50:35.754Z,48.30
2019-02-21T20:53:46.479Z,49.93
2019-02-21T20:56:49.257Z,50.88
2019-02-21T20:59:51.788Z,48.80
2019-02-21T21:02:54.315Z,37.60
2019-02-21T21:05:57.099Z,54.03
2019-02-21T21:08:59.883Z,43.35
2019-02-21T21:12:02.668Z,55.75
2019-02-21T21:15:05.196Z,22.87
2019-02-21T21:18:07.725Z,43.80
2019-02-21T21:21:13.066Z,50.15
2019-02-21T21:24:16.623Z,55.40
2019-02-21T21:27:19.404Z,53.23
2019-02-21T21:30:22.186Z,57.60
2019-02-21T21:33:25.227Z,49.48
2019-02-21T21:36:29.740Z,46.40
2019-02-21T21:39:30.795Z,54.48
2019-02-21T21:42:33.326Z,43.05
2019-02-21T21:45:36.107Z,48.42
2019-02-21T21:48:38.889Z,25.32
2019-02-21T21:51:41.419Z,45.90
2019-02-21T21:54:44.201Z,42.30
2019-02-21T21:57:46.990Z,59.48
2019-02-21T22:00:50.798Z,53.90
2019-02-21T22:04:02.285Z,43.33
2019-02-21T22:07:05.066Z,34.70
2019-02-21T22:10:07.597Z,51.63
2019-02-21T22:13:10.121Z,50.08
2019-02-21T22:16:12.912Z,41.63
2019-02-21T22:19:15.434Z,49.50
2019-02-21T22:22:18.992Z,36.38
2019-02-21T22:25:21.783Z,74.37
2019-02-21T22:28:21.341Z,55.05
2019-02-21T22:31:24.270Z,62.45
2019-02-21T22:34:27.052Z,50.70
2019-02-21T22:37:29.577Z,53.95
2019-02-21T22:40:31.854Z,57.62
2019-02-21T22:43:34.890Z,59.30
2019-02-21T22:46:37.681Z,53.23
2019-02-21T22:49:41.737Z,48.87
2019-02-21T22:52:44.803Z,56.48
2019-02-21T22:55:44.750Z,41.37
2019-02-21T22:58:47.276Z,48.30
2019-02-21T23:02:07.466Z,51.10
2019-02-21T23:05:24.842Z,50.08
2019-02-21T23:08:39.914Z,50.73
2019-02-21T23:11:42.440Z,46.37
2019-02-21T23:15:22.348Z,54.35
2019-02-21T23:18:25.386Z,42.75
2019-02-21T23:21:27.914Z,51.40
2019-02-21T23:24:30.696Z,48.58
2019-02-21T23:27:40.649Z,55.00
2019-02-21T23:30:44.203Z,51.30
2019-02-21T23:33:46.730Z,53.02
2019-02-21T23:36:49.518Z,53.50
2019-02-21T23:39:52.043Z,54.10
2019-02-21T23:43:02.250Z,44.90
2019-02-21T23:46:05.294Z,53.98
2019-02-21T23:49:08.330Z,45.80
2019-02-21T23:52:08.564Z,50.17
2019-02-21T23:55:11.082Z,48.87
2019-02-21T23:58:14.125Z,38.92
